Time;durP1;ratioP1;P1;durP2;ratioP2;P2;SDS_P1;SDS_P2;PMS_P1;PMS_P2;Temp;Humidity;BMP_temperature;BMP_pressure;BME280_temperature;BME280_humidity;BME280_pressure;Samples;Min_cycle;Max_cycle;Signal;HPM_P1;HPM_P2
2023/08/16 00:00:07;;;;;;;1.38;1.17;;;23.40;62.00;;;;;;4897856;29;20546;-75
2023/08/16 00:02:32;;;;;;;1.98;1.15;;;23.50;62.10;;;;;;4897720;29;20482;-75
2023/08/16 00:04:58;;;;;;;1.65;1.10;;;23.40;62.10;;;;;;4897896;29;20039;-75
2023/08/16 00:07:24;;;;;;;2.20;1.30;;;23.40;62.10;;;;;;4882767;29;20410;-75
2023/08/16 00:09:52;;;;;;;1.73;1.30;;;23.40;62.10;;;;;;4897895;29;20043;-75
2023/08/16 00:12:18;;;;;;;1.25;1.10;;;23.30;62.10;;;;;;4897758;29;20040;-77
2023/08/16 00:14:44;;;;;;;1.42;1.00;;;23.30;62.10;;;;;;4897363;29;20128;-75
2023/08/16 00:17:09;;;;;;;1.10;1.00;;;23.30;62.20;;;;;;4897285;29;20498;-76
2023/08/16 00:19:37;;;;;;;1.30;1.10;;;23.30;62.20;;;;;;4897587;29;20064;-74
2023/08/16 00:22:02;;;;;;;1.20;1.02;;;23.20;62.20;;;;;;4882244;29;20478;-78
2023/08/16 00:24:28;;;;;;;1.10;1.00;;;23.20;62.30;;;;;;4897395;29;20041;-75
2023/08/16 00:26:54;;;;;;;1.42;1.20;;;23.20;62.20;;;;;;4897227;29;20033;-75
2023/08/16 00:29:20;;;;;;;1.30;1.10;;;23.20;62.30;;;;;;4897341;29;20068;-75
2023/08/16 00:31:46;;;;;;;1.85;1.10;;;23.10;62.30;;;;;;4897835;29;20112;-75
2023/08/16 00:34:12;;;;;;;1.05;0.88;;;23.10;62.30;;;;;;4897161;29;20431;-75
2023/08/16 00:36:37;;;;;;;1.15;1.00;;;23.10;62.30;;;;;;4897240;29;20056;-75
2023/08/16 00:39:03;;;;;;;0.95;0.88;;;23.10;62.40;;;;;;4912954;29;20036;-75
2023/08/16 00:41:29;;;;;;;1.65;1.10;;;23.00;62.40;;;;;;4898608;29;20056;-76
2023/08/16 00:43:55;;;;;;;1.77;1.10;;;23.00;62.40;;;;;;4897037;29;20092;-74
2023/08/16 00:46:21;;;;;;;0.80;0.80;;;23.00;62.40;;;;;;4896924;29;20035;-76
2023/08/16 00:48:47;;;;;;;1.13;0.90;;;23.00;62.50;;;;;;4897099;29;20071;-75
2023/08/16 00:51:14;;;;;;;1.85;1.20;;;23.00;62.50;;;;;;4881100;29;20032;-76
2023/08/16 00:53:42;;;;;;;1.45;1.15;;;22.90;62.50;;;;;;4897212;29;20033;-76
2023/08/16 00:56:12;;;;;;;1.00;0.90;;;22.90;62.50;;;;;;4897211;29;20415;-76
2023/08/16 00:58:38;;;;;;;1.20;1.08;;;22.90;62.60;;;;;;4897991;29;20028;-75
2023/08/16 01:01:04;;;;;;;2.05;1.10;;;22.90;62.50;;;;;;4881585;29;20385;-76
2023/08/16 01:03:30;;;;;;;1.30;1.20;;;22.90;62.60;;;;;;4897820;29;20482;-75
2023/08/16 01:05:56;;;;;;;1.00;0.95;;;22.80;62.60;;;;;;4896965;29;20033;-75
2023/08/16 01:08:22;;;;;;;1.48;1.13;;;22.80;62.70;;;;;;4896966;29;20119;-77
2023/08/16 01:11:00;;;;;;;1.00;0.90;;;22.70;62.70;;;;;;4881368;29;20128;-76
2023/08/16 01:13:40;;;;;;;0.90;0.80;;;22.70;62.80;;;;;;4896524;29;20134;-76
2023/08/16 01:16:07;;;;;;;1.08;0.95;;;22.70;62.80;;;;;;4896914;29;20597;-78
2023/08/16 01:18:40;;;;;;;0.82;0.82;;;22.70;62.80;;;;;;4897019;29;20532;-75
2023/08/16 01:21:08;;;;;;;1.17;0.82;;;22.70;62.90;;;;;;4881288;29;20032;-75
2023/08/16 01:24:16;;;;;;;1.05;1.02;;;22.60;62.80;;;;;;4897752;29;20482;-75
2023/08/16 01:26:43;;;;;;;1.40;1.10;;;22.60;62.90;;;;;;4906282;29;20052;-75
2023/08/16 01:29:10;;;;;;;1.00;0.85;;;22.60;62.90;;;;;;4896533;29;20393;-76
2023/08/16 01:31:37;;;;;;;1.67;1.27;;;22.50;62.90;;;;;;4896745;29;20072;-76
2023/08/16 01:34:04;;;;;;;1.13;0.98;;;22.50;63.00;;;;;;4896849;29;20051;-75
2023/08/16 01:36:30;;;;;;;2.92;1.20;;;22.50;63.10;;;;;;4897344;29;20471;-75
2023/08/16 01:38:57;;;;;;;0.95;0.80;;;22.50;63.10;;;;;;4896801;29;20378;-76
2023/08/16 01:41:37;;;;;;;2.38;1.10;;;22.50;63.10;;;;;;4896375;29;20060;-74
2023/08/16 01:44:03;;;;;;;0.90;0.90;;;22.50;63.20;;;;;;4899129;29;20379;-76
2023/08/16 01:46:30;;;;;;;1.52;1.00;;;22.40;63.10;;;;;;4915609;29;20037;-73
2023/08/16 01:48:57;;;;;;;1.52;1.08;;;22.40;63.20;;;;;;4915813;29;20124;-77
2023/08/16 01:51:24;;;;;;;1.10;0.95;;;22.40;63.20;;;;;;4915935;29;20040;-77
2023/08/16 01:53:52;;;;;;;0.80;0.75;;;22.40;63.30;;;;;;4884361;29;20474;-76
2023/08/16 01:56:18;;;;;;;1.38;1.02;;;22.30;63.30;;;;;;4900065;29;20032;-74
2023/08/16 01:58:44;;;;;;;1.98;1.20;;;22.30;63.30;;;;;;4900704;29;20454;-76
2023/08/16 02:01:09;;;;;;;1.35;1.00;;;22.30;63.40;;;;;;4915906;29;20033;-75
2023/08/16 02:03:35;;;;;;;1.05;0.95;;;22.30;63.40;;;;;;4884964;29;20529;-75
2023/08/16 02:06:02;;;;;;;1.10;1.00;;;22.30;63.40;;;;;;4884511;29;20071;-76
2023/08/16 02:08:27;;;;;;;1.35;1.10;;;22.30;63.40;;;;;;4899901;29;20079;-78
2023/08/16 02:10:54;;;;;;;1.15;1.00;;;22.30;63.40;;;;;;4915552;29;20441;-75
2023/08/16 02:13:19;;;;;;;1.58;1.20;;;22.30;63.40;;;;;;4899564;29;20032;-76
2023/08/16 02:15:45;;;;;;;1.63;1.10;;;22.20;63.30;;;;;;4899723;29;20060;-75
2023/08/16 02:18:11;;;;;;;1.35;1.00;;;22.20;63.40;;;;;;4899751;29;20386;-75
2023/08/16 02:20:41;;;;;;;2.15;1.20;;;22.20;63.40;;;;;;4899570;29;20036;-75
2023/08/16 02:23:08;;;;;;;1.40;1.10;;;22.20;63.50;;;;;;4899803;29;20041;-76
2023/08/16 02:25:33;;;;;;;1.10;1.05;;;22.20;63.50;;;;;;4899473;29;20028;-75
2023/08/16 02:28:00;;;;;;;1.15;0.98;;;22.20;63.50;;;;;;4899464;29;20029;-75
2023/08/16 02:30:26;;;;;;;0.88;0.88;;;22.20;63.50;;;;;;4899835;29;20056;-75
2023/08/16 02:32:54;;;;;;;1.15;1.05;;;22.20;63.50;;;;;;4899416;29;20041;-76
2023/08/16 02:35:20;;;;;;;1.23;1.00;;;22.10;63.40;;;;;;4899277;29;20048;-76
2023/08/16 02:37:46;;;;;;;1.52;1.10;;;22.10;63.50;;;;;;4899974;29;20055;-76
2023/08/16 02:40:12;;;;;;;2.22;1.10;;;22.10;63.40;;;;;;4899879;29;20459;-76
2023/08/16 02:42:38;;;;;;;1.88;1.20;;;22.10;63.40;;;;;;4915134;29;20124;-77
2023/08/16 02:45:05;;;;;;;1.15;1.00;;;22.10;63.50;;;;;;4899938;29;20489;-76
2023/08/16 02:47:30;;;;;;;1.13;1.02;;;22.10;63.50;;;;;;4899291;29;20033;-75
2023/08/16 02:49:56;;;;;;;1.00;1.00;;;22.10;63.50;;;;;;4899199;29;20036;-77
2023/08/16 02:52:22;;;;;;;1.10;1.00;;;22.00;63.50;;;;;;4899006;29;20040;-76
2023/08/16 02:54:48;;;;;;;1.08;0.80;;;22.00;63.50;;;;;;4898691;29;20055;-77
2023/08/16 02:57:15;;;;;;;0.90;0.90;;;22.00;63.60;;;;;;4914011;29;20040;-76
2023/08/16 02:59:42;;;;;;;1.13;1.02;;;22.00;63.60;;;;;;4899769;29;20033;-76
2023/08/16 03:02:08;;;;;;;2.00;1.10;;;22.00;63.60;;;;;;4899633;29;20440;-78
2023/08/16 03:04:39;;;;;;;1.08;1.00;;;22.00;63.60;;;;;;4898791;29;20077;-76
2023/08/16 03:07:09;;;;;;;1.52;1.10;;;22.00;63.70;;;;;;4914758;29;20496;-75
2023/08/16 03:09:35;;;;;;;1.00;1.00;;;22.00;63.70;;;;;;4898623;29;20069;-76
2023/08/16 03:12:01;;;;;;;1.67;1.10;;;21.90;63.70;;;;;;4899879;29;20047;-76
2023/08/16 03:14:30;;;;;;;1.08;0.98;;;21.90;63.60;;;;;;4898800;29;20038;-75
2023/08/16 03:16:59;;;;;;;1.45;1.05;;;21.90;63.70;;;;;;4898624;29;20033;-77
2023/08/16 03:19:25;;;;;;;1.30;1.10;;;21.90;63.70;;;;;;4899511;29;20037;-76
2023/08/16 03:21:52;;;;;;;1.02;1.00;;;21.90;63.70;;;;;;4899002;29;20060;-75
2023/08/16 03:24:18;;;;;;;1.80;1.10;;;21.90;63.70;;;;;;4898662;29;20032;-78
2023/08/16 03:26:44;;;;;;;1.25;1.05;;;21.90;63.70;;;;;;4898478;29;20119;-77
2023/08/16 03:29:10;;;;;;;1.20;1.10;;;21.80;63.70;;;;;;4898432;29;20040;-75
2023/08/16 03:31:37;;;;;;;1.40;1.10;;;21.90;63.80;;;;;;4897948;29;20044;-76
2023/08/16 03:34:04;;;;;;;1.45;1.10;;;21.80;63.80;;;;;;4898281;29;20120;-78
2023/08/16 03:36:30;;;;;;;1.55;1.10;;;21.80;63.80;;;;;;4898380;29;20056;-76
2023/08/16 03:39:00;;;;;;;1.13;1.02;;;21.80;63.80;;;;;;4913381;29;20033;-76
2023/08/16 03:41:26;;;;;;;1.83;1.20;;;21.80;63.80;;;;;;4898165;29;20490;-76
2023/08/16 03:43:51;;;;;;;1.20;1.10;;;21.80;63.80;;;;;;4898178;29;20047;-76
2023/08/16 03:46:17;;;;;;;1.63;1.27;;;21.80;63.90;;;;;;4914568;29;20056;-76
2023/08/16 03:48:43;;;;;;;1.65;1.15;;;21.80;63.90;;;;;;4898063;29;20127;-75
2023/08/16 03:51:08;;;;;;;2.28;1.20;;;21.70;63.80;;;;;;4897795;29;20056;-79
2023/08/16 03:53:34;;;;;;;1.92;1.27;;;21.70;63.90;;;;;;4898461;29;20111;-76
2023/08/16 03:56:00;;;;;;;1.02;1.00;;;21.70;63.90;;;;;;4897759;29;20040;-77
2023/08/16 03:58:26;;;;;;;2.17;1.10;;;21.70;63.90;;;;;;4897802;29;20547;-76
2023/08/16 04:00:52;;;;;;;1.95;1.25;;;21.70;63.90;;;;;;4882119;29;20091;-76
2023/08/16 04:03:18;;;;;;;1.40;1.20;;;21.60;63.90;;;;;;4897833;29;20056;-76
2023/08/16 04:05:44;;;;;;;2.55;1.30;;;21.60;63.90;;;;;;4913569;29;20131;-76
2023/08/16 04:08:13;;;;;;;1.20;1.10;;;21.70;64.00;;;;;;4897462;29;20084;-76
2023/08/16 04:10:38;;;;;;;1.45;0.90;;;21.60;64.20;;;;;;4898960;29;20044;-77
2023/08/16 04:13:05;;;;;;;1.00;1.00;;;21.60;64.00;;;;;;4898885;29;20128;-76
2023/08/16 04:15:31;;;;;;;1.48;1.10;;;21.60;64.00;;;;;;4897623;29;20041;-77
2023/08/16 04:17:57;;;;;;;1.70;1.13;;;21.60;64.00;;;;;;4897541;29;20068;-75
2023/08/16 04:20:23;;;;;;;2.13;1.25;;;21.60;64.00;;;;;;4897135;29;20112;-78
2023/08/16 04:22:49;;;;;;;1.33;1.20;;;21.60;64.00;;;;;;4897509;29;20116;-76
2023/08/16 04:25:16;;;;;;;1.40;1.10;;;21.60;64.00;;;;;;4897512;29;20115;-76
2023/08/16 04:27:43;;;;;;;1.65;1.20;;;21.50;64.00;;;;;;4913692;29;20040;-76
2023/08/16 04:30:10;;;;;;;1.10;0.90;;;21.50;64.00;;;;;;4912952;29;20119;-77
2023/08/16 04:32:36;;;;;;;1.55;1.30;;;21.50;64.00;;;;;;4897098;29;20051;-77
2023/08/16 04:35:03;;;;;;;2.17;1.27;;;21.50;64.10;;;;;;4912982;29;20032;-77
2023/08/16 04:37:29;;;;;;;1.42;1.17;;;21.50;64.70;;;;;;4896997;29;20033;-77
2023/08/16 04:39:55;;;;;;;1.55;1.00;;;21.50;64.80;;;;;;4897279;29;20040;-78
2023/08/16 04:42:21;;;;;;;1.30;1.20;;;21.50;64.20;;;;;;4881289;29;20144;-76
2023/08/16 04:44:48;;;;;;;1.30;1.20;;;21.50;64.10;;;;;;4912834;29;20040;-79
2023/08/16 04:47:14;;;;;;;1.50;1.10;;;21.50;64.10;;;;;;4897065;29;20474;-77
2023/08/16 04:49:40;;;;;;;1.13;0.98;;;21.40;64.10;;;;;;4897315;29;20065;-76
2023/08/16 04:52:06;;;;;;;1.20;1.10;;;21.40;64.10;;;;;;4896681;29;20036;-76
2023/08/16 04:54:33;;;;;;;1.92;1.33;;;21.40;64.20;;;;;;4881554;29;20100;-79
2023/08/16 04:56:59;;;;;;;1.27;1.10;;;21.40;64.20;;;;;;4897243;29;20107;-75
2023/08/16 04:59:26;;;;;;;1.40;1.25;;;21.40;64.20;;;;;;4897330;29;20032;-76
2023/08/16 05:01:51;;;;;;;1.45;1.10;;;21.40;64.30;;;;;;4882474;29;20063;-75
2023/08/16 05:04:17;;;;;;;1.45;1.10;;;21.40;64.30;;;;;;4881874;29;20442;-75
2023/08/16 05:06:43;;;;;;;1.50;1.40;;;21.40;64.20;;;;;;4897062;29;20037;-75
2023/08/16 05:09:11;;;;;;;2.78;1.40;;;21.40;64.30;;;;;;4897091;29;20041;-74
2023/08/16 05:11:37;;;;;;;2.00;1.20;;;21.40;64.30;;;;;;4896621;29;20039;-75
2023/08/16 05:14:03;;;;;;;1.70;1.30;;;21.30;64.30;;;;;;4881197;29;20040;-76
2023/08/16 05:16:28;;;;;;;1.15;1.13;;;21.30;64.30;;;;;;4881198;29;20124;-75
2023/08/16 05:18:57;;;;;;;2.38;1.08;;;21.30;64.30;;;;;;4898052;29;20044;-76
2023/08/16 05:21:24;;;;;;;1.30;1.20;;;21.30;65.00;;;;;;4900923;29;20084;-77
2023/08/16 05:23:50;;;;;;;1.65;1.25;;;21.30;64.30;;;;;;4900503;29;20498;-79
2023/08/16 05:26:16;;;;;;;1.60;1.20;;;21.30;64.40;;;;;;4885069;29;20075;-76
2023/08/16 05:28:41;;;;;;;1.60;1.20;;;21.20;64.40;;;;;;4901560;29;20098;-76
2023/08/16 05:31:11;;;;;;;1.50;1.15;;;21.30;64.50;;;;;;4900255;29;20051;-77
2023/08/16 05:33:38;;;;;;;1.38;1.20;;;21.30;64.50;;;;;;4916260;29;20029;-76
2023/08/16 05:36:05;;;;;;;1.42;1.17;;;21.20;64.40;;;;;;4900296;29;20204;-76
2023/08/16 05:38:32;;;;;;;1.80;1.25;;;21.20;64.40;;;;;;4901545;29;20100;-77
2023/08/16 05:40:58;;;;;;;2.03;1.38;;;21.20;64.50;;;;;;4900008;29;20127;-77
2023/08/16 05:43:24;;;;;;;2.15;1.20;;;21.20;64.50;;;;;;4900457;29;20120;-77
2023/08/16 05:45:51;;;;;;;1.85;1.25;;;21.20;64.50;;;;;;4900028;29;20599;-78
2023/08/16 05:48:17;;;;;;;1.50;1.40;;;21.20;64.60;;;;;;4916849;29;20044;-75
2023/08/16 05:50:43;;;;;;;1.63;1.23;;;21.20;64.60;;;;;;4884774;29;20414;-76
2023/08/16 05:53:09;;;;;;;1.67;1.40;;;21.20;64.60;;;;;;4900192;29;20047;-76
2023/08/16 05:55:34;;;;;;;1.30;1.20;;;21.20;64.60;;;;;;4901346;29;20565;-76
2023/08/16 05:58:00;;;;;;;1.67;1.35;;;21.20;64.60;;;;;;4900284;29;20056;-76
2023/08/16 06:00:26;;;;;;;1.77;1.40;;;21.20;64.60;;;;;;4900576;29;20037;-77
2023/08/16 06:02:53;;;;;;;1.83;1.30;;;21.20;64.70;;;;;;4884899;29;20493;-76
2023/08/16 06:05:19;;;;;;;2.42;1.50;;;21.20;64.70;;;;;;4900491;29;20028;-76
2023/08/16 06:07:45;;;;;;;1.88;1.30;;;21.20;64.80;;;;;;4900354;29;20041;-76
2023/08/16 06:10:11;;;;;;;1.52;1.25;;;21.20;64.80;;;;;;4900254;29;20427;-77
2023/08/16 06:12:37;;;;;;;1.60;1.25;;;21.20;64.80;;;;;;4899889;29;20125;-77
2023/08/16 06:15:03;;;;;;;2.38;1.38;;;21.20;64.90;;;;;;4900900;29;20466;-77
2023/08/16 06:17:29;;;;;;;1.38;1.27;;;21.20;64.90;;;;;;4900019;29;20037;-78
2023/08/16 06:19:54;;;;;;;2.83;1.48;;;21.20;64.90;;;;;;4900126;29;20088;-76
2023/08/16 06:22:20;;;;;;;1.35;1.20;;;21.20;64.90;;;;;;4884905;29;20047;-76
2023/08/16 06:24:46;;;;;;;2.55;1.65;;;21.20;64.90;;;;;;4899638;29;20116;-76
2023/08/16 06:27:12;;;;;;;1.52;1.33;;;21.20;65.00;;;;;;4884644;29;20064;-76
2023/08/16 06:29:38;;;;;;;2.97;1.50;;;21.20;65.00;;;;;;4900492;29;20087;-76
2023/08/16 06:32:04;;;;;;;1.83;1.40;;;21.20;65.10;;;;;;4900219;29;20478;-77
2023/08/16 06:34:30;;;;;;;1.98;1.27;;;21.20;65.10;;;;;;4915235;29;20131;-76
2023/08/16 06:36:56;;;;;;;2.28;1.45;;;21.20;65.10;;;;;;4884198;29;20064;-74
2023/08/16 06:39:22;;;;;;;1.58;1.40;;;21.20;65.10;;;;;;4899680;29;20036;-77
2023/08/16 06:41:48;;;;;;;1.73;1.40;;;21.20;65.10;;;;;;4899260;29;20144;-76
2023/08/16 06:44:14;;;;;;;1.27;1.17;;;21.20;65.10;;;;;;4899647;29;20099;-76
2023/08/16 06:46:40;;;;;;;2.25;1.30;;;21.20;65.80;;;;;;4899164;29;20182;-76
2023/08/16 06:49:06;;;;;;;2.58;1.45;;;21.30;65.20;;;;;;4899452;29;20039;-77
2023/08/16 06:51:32;;;;;;;1.58;1.40;;;21.30;65.90;;;;;;4915149;29;20040;-78
2023/08/16 06:53:58;;;;;;;1.92;1.45;;;21.20;65.30;;;;;;4915304;29;20389;-76
2023/08/16 06:56:23;;;;;;;1.63;1.30;;;21.30;65.30;;;;;;4899169;29;20131;-76
2023/08/16 06:58:50;;;;;;;1.50;1.30;;;21.30;65.90;;;;;;4899509;29;20057;-77
2023/08/16 07:01:16;;;;;;;2.42;1.40;;;21.30;65.30;;;;;;4899461;29;20099;-76
2023/08/16 07:03:42;;;;;;;1.63;1.40;;;21.30;65.30;;;;;;4899179;29;20047;-76
2023/08/16 07:06:08;;;;;;;2.60;1.60;;;21.30;65.30;;;;;;4900170;29;20036;-76
2023/08/16 07:08:34;;;;;;;3.53;1.60;;;21.40;65.30;;;;;;4883752;29;20047;-77
2023/08/16 07:11:00;;;;;;;2.00;1.50;;;21.40;65.40;;;;;;4884202;29;20040;-76
2023/08/16 07:13:26;;;;;;;1.98;1.40;;;21.40;65.30;;;;;;4883317;29;20037;-77
2023/08/16 07:15:51;;;;;;;1.77;1.23;;;21.40;65.30;;;;;;4898888;29;20060;-76
2023/08/16 07:18:17;;;;;;;1.48;1.20;;;21.40;66.00;;;;;;4915152;29;20386;-77
2023/08/16 07:20:43;;;;;;;1.77;1.20;;;21.40;65.30;;;;;;4914534;29;20549;-77
2023/08/16 07:23:09;;;;;;;1.90;1.38;;;21.50;65.40;;;;;;4899756;29;20036;-76
2023/08/16 07:25:35;;;;;;;2.03;1.58;;;21.50;65.40;;;;;;4914336;29;20036;-78
2023/08/16 07:28:01;;;;;;;1.38;1.27;;;21.50;65.40;;;;;;4898584;29;20039;-76
2023/08/16 07:30:27;;;;;;;1.92;1.30;;;21.60;65.40;;;;;;4898610;29;20045;-76
2023/08/16 07:32:52;;;;;;;1.88;1.23;;;21.60;65.40;;;;;;4899076;29;20423;-76
2023/08/16 07:35:18;;;;;;;1.40;1.30;;;21.60;65.30;;;;;;4914283;29;20374;-76
2023/08/16 07:37:44;;;;;;;1.45;1.35;;;21.60;65.30;;;;;;4898733;29;20036;-76
2023/08/16 07:40:10;;;;;;;1.58;1.20;;;21.60;65.30;;;;;;4898172;29;20032;-76
2023/08/16 07:42:37;;;;;;;2.58;1.20;;;21.60;65.30;;;;;;4898052;29;20443;-76
2023/08/16 07:45:03;;;;;;;2.42;1.50;;;21.70;65.30;;;;;;4899348;29;20056;-77
2023/08/16 07:47:29;;;;;;;1.65;1.20;;;21.70;65.30;;;;;;4898388;29;20033;-76
2023/08/16 07:49:55;;;;;;;1.75;1.25;;;21.70;65.20;;;;;;4898634;29;20082;-76
2023/08/16 07:52:21;;;;;;;1.52;1.20;;;21.80;65.20;;;;;;4899843;29;20029;-76
2023/08/16 07:54:47;;;;;;;1.90;1.17;;;21.80;65.20;;;;;;4882686;29;20088;-76
2023/08/16 07:57:13;;;;;;;1.50;1.38;;;21.80;65.20;;;;;;4899635;29;20037;-76
2023/08/16 07:59:42;;;;;;;2.05;1.10;;;21.80;65.20;;;;;;4898343;29;20056;-77
2023/08/16 08:02:08;;;;;;;1.75;1.27;;;21.90;65.20;;;;;;4899288;29;20123;-76
2023/08/16 08:04:38;;;;;;;2.92;1.20;;;21.90;65.20;;;;;;4899468;29;20052;-76
2023/08/16 08:07:04;;;;;;;1.55;1.38;;;21.90;65.20;;;;;;4914098;29;20028;-77
2023/08/16 08:09:31;;;;;;;2.42;1.25;;;21.90;65.10;;;;;;4898350;29;20084;-76
2023/08/16 08:11:58;;;;;;;1.98;1.20;;;21.90;65.10;;;;;;4897755;29;20132;-76
2023/08/16 08:14:24;;;;;;;1.90;1.27;;;21.90;65.10;;;;;;4898704;29;20041;-78
2023/08/16 08:16:49;;;;;;;2.40;1.42;;;22.00;65.10;;;;;;4897802;29;20367;-77
2023/08/16 08:19:15;;;;;;;1.63;1.10;;;22.00;65.00;;;;;;4898713;29;20060;-78
2023/08/16 08:21:41;;;;;;;2.20;1.23;;;22.00;65.00;;;;;;4898562;29;20115;-77
2023/08/16 08:24:07;;;;;;;1.42;1.17;;;22.10;65.00;;;;;;4898190;29;20466;-75
2023/08/16 08:26:34;;;;;;;1.20;1.10;;;22.10;64.90;;;;;;4897608;29;20040;-76
2023/08/16 08:29:00;;;;;;;1.90;1.30;;;22.20;64.90;;;;;;4898289;29;20043;-76
2023/08/16 08:31:26;;;;;;;1.95;1.40;;;22.20;64.80;;;;;;4897294;29;20043;-76
2023/08/16 08:33:52;;;;;;;1.27;1.17;;;22.20;64.80;;;;;;4898763;29;20029;-77
2023/08/16 08:36:17;;;;;;;1.65;1.20;;;22.30;64.80;;;;;;4913248;29;20036;-77
2023/08/16 08:38:43;;;;;;;1.50;1.05;;;22.30;64.70;;;;;;4882229;29;20513;-76
2023/08/16 08:41:09;;;;;;;2.58;1.17;;;22.30;64.60;;;;;;4897668;29;20052;-77
2023/08/16 08:43:36;;;;;;;2.03;1.25;;;22.40;64.60;;;;;;4897593;29;20036;-76
2023/08/16 08:46:04;;;;;;;2.10;1.30;;;22.40;64.60;;;;;;4897618;29;20060;-76
2023/08/16 08:48:30;;;;;;;1.38;1.10;;;22.40;64.60;;;;;;4898372;29;20032;-76
2023/08/16 08:50:56;;;;;;;1.25;1.02;;;22.40;64.50;;;;;;4898189;29;20405;-76
2023/08/16 08:53:23;;;;;;;1.98;1.38;;;22.40;64.50;;;;;;4897534;29;20036;-77
2023/08/16 08:55:54;;;;;;;2.10;1.00;;;22.50;64.50;;;;;;4913251;29;20083;-76
2023/08/16 08:58:21;;;;;;;1.27;1.17;;;22.50;64.50;;;;;;4912811;29;20040;-76
2023/08/16 09:00:48;;;;;;;3.08;1.30;;;22.60;64.40;;;;;;4897229;29;20085;-76
2023/08/16 09:03:18;;;;;;;3.45;1.33;;;22.60;64.30;;;;;;4866363;29;20083;-77
2023/08/16 09:05:53;;;;;;;1.75;1.42;;;22.70;64.30;;;;;;4898690;29;20029;-76
2023/08/16 09:08:20;;;;;;;3.60;1.40;;;22.70;64.30;;;;;;4898037;29;20111;-77
2023/08/16 09:10:46;;;;;;;2.25;1.58;;;22.70;64.10;;;;;;4913093;29;20488;-77
2023/08/16 09:13:14;;;;;;;1.23;0.98;;;22.80;64.10;;;;;;4897197;29;20054;-76
2023/08/16 09:15:40;;;;;;;1.77;1.20;;;22.90;64.10;;;;;;4913242;29;20037;-76
2023/08/16 09:18:17;;;;;;;1.73;1.10;;;22.90;63.90;;;;;;4896861;29;20040;-76
2023/08/16 09:20:44;;;;;;;1.92;1.35;;;23.00;63.90;;;;;;4898154;29;20108;-79
2023/08/16 09:23:19;;;;;;;2.55;1.40;;;23.00;63.90;;;;;;4898151;29;20040;-76
2023/08/16 09:25:46;;;;;;;1.52;1.20;;;23.10;63.90;;;;;;4882200;29;20055;-76
2023/08/16 09:28:13;;;;;;;1.88;1.35;;;23.10;63.70;;;;;;4881285;29;20033;-77
2023/08/16 09:30:40;;;;;;;2.63;1.45;;;23.20;63.70;;;;;;4897279;29;20040;-75
2023/08/16 09:33:07;;;;;;;1.77;1.27;;;23.30;63.60;;;;;;4896771;29;20044;-77
2023/08/16 09:35:38;;;;;;;1.95;1.20;;;23.40;63.60;;;;;;4896824;29;20112;-76
2023/08/16 09:38:03;;;;;;;2.00;1.30;;;23.40;63.50;;;;;;4898000;29;20145;-77
2023/08/16 09:40:30;;;;;;;1.48;1.38;;;23.50;63.40;;;;;;4896717;29;20053;-76
2023/08/16 09:43:00;;;;;;;1.95;1.42;;;23.60;63.40;;;;;;4897004;29;20036;-78
2023/08/16 09:45:36;;;;;;;1.80;1.40;;;23.70;63.30;;;;;;4896725;29;20512;-77
2023/08/16 09:48:02;;;;;;;3.45;1.23;;;23.80;63.30;;;;;;4897220;29;20037;-76
2023/08/16 09:50:31;;;;;;;2.17;1.10;;;23.80;63.10;;;;;;4881599;29;20549;-77
2023/08/16 09:52:58;;;;;;;2.10;1.40;;;23.90;63.10;;;;;;4881468;29;20040;-76
2023/08/16 09:55:30;;;;;;;1.58;1.08;;;24.00;63.00;;;;;;4897484;29;20040;-76
2023/08/16 09:57:58;;;;;;;2.05;1.40;;;24.10;63.00;;;;;;4898286;29;20033;-76
2023/08/16 10:00:28;;;;;;;1.20;1.15;;;24.10;62.90;;;;;;4913212;29;20434;-76
2023/08/16 10:02:54;;;;;;;1.67;1.13;;;24.20;62.80;;;;;;4896486;29;20101;-76
2023/08/16 10:05:20;;;;;;;1.67;1.23;;;24.30;62.80;;;;;;4899799;29;20044;-76
2023/08/16 10:07:47;;;;;;;1.17;1.08;;;24.40;62.60;;;;;;4916571;29;20032;-77
2023/08/16 10:10:14;;;;;;;1.35;1.08;;;24.40;62.60;;;;;;4900398;29;20044;-76
2023/08/16 10:12:41;;;;;;;0.95;0.85;;;24.50;62.50;;;;;;4884524;29;20033;-77
2023/08/16 10:15:08;;;;;;;1.20;1.10;;;24.60;62.40;;;;;;4899933;29;20040;-77
2023/08/16 10:17:42;;;;;;;1.73;1.20;;;24.70;62.40;;;;;;4901499;29;20032;-76
2023/08/16 10:20:22;;;;;;;1.40;1.23;;;24.70;62.30;;;;;;4900862;29;20036;-76
2023/08/16 10:22:54;;;;;;;1.05;1.00;;;24.80;62.20;;;;;;4901404;29;20087;-77
2023/08/16 10:25:25;;;;;;;1.45;1.00;;;24.90;62.10;;;;;;4900286;29;20489;-78
2023/08/16 10:27:54;;;;;;;1.02;0.93;;;25.00;62.10;;;;;;4899738;29;20128;-76
2023/08/16 10:30:24;;;;;;;2.67;1.30;;;25.10;62.10;;;;;;4915676;29;20222;-76
2023/08/16 10:32:57;;;;;;;1.17;1.08;;;25.10;62.00;;;;;;4899792;29;20151;-78
2023/08/16 10:35:23;;;;;;;1.98;1.20;;;25.20;61.90;;;;;;4915815;29;20035;-77
2023/08/16 10:37:53;;;;;;;2.08;1.30;;;25.30;61.90;;;;;;4900640;29;20029;-77
2023/08/16 10:40:20;;;;;;;1.63;1.10;;;25.40;61.90;;;;;;4915190;29;20044;-75
2023/08/16 10:42:54;;;;;;;1.17;1.08;;;25.40;61.80;;;;;;4884245;29;20060;-77
2023/08/16 10:45:37;;;;;;;1.38;1.27;;;25.50;61.80;;;;;;4901170;29;20040;-76
2023/08/16 10:48:17;;;;;;;2.75;1.30;;;25.50;61.80;;;;;;4915239;29;20039;-78
2023/08/16 10:50:44;;;;;;;1.55;1.10;;;25.60;61.70;;;;;;4899231;29;20063;-77
2023/08/16 10:53:12;;;;;;;1.88;1.30;;;25.70;61.70;;;;;;4899890;29;20075;-77
2023/08/16 10:55:39;;;;;;;1.45;1.02;;;25.70;61.70;;;;;;4900439;29;20036;-77
2023/08/16 10:58:05;;;;;;;1.40;1.20;;;25.80;61.70;;;;;;4899513;29;20080;-79
2023/08/16 11:00:35;;;;;;;1.75;1.10;;;25.80;61.70;;;;;;4914881;29;20108;-76
2023/08/16 11:03:03;;;;;;;1.33;1.20;;;25.90;61.80;;;;;;4899321;29;20035;-77
2023/08/16 11:05:31;;;;;;;1.70;1.17;;;25.90;61.80;;;;;;4883862;29;20426;-77
2023/08/16 11:08:01;;;;;;;1.67;1.20;;;25.90;61.70;;;;;;4899343;29;20037;-76
2023/08/16 11:10:34;;;;;;;1.67;1.13;;;25.90;61.70;;;;;;4900226;29;20033;-77
2023/08/16 11:13:02;;;;;;;1.70;0.98;;;26.00;62.00;;;;;;4899981;29;20103;-76
2023/08/16 11:15:28;;;;;;;1.83;1.10;;;26.00;61.80;;;;;;4899033;29;20454;-74
2023/08/16 11:17:55;;;;;;;1.52;1.05;;;26.00;61.80;;;;;;4882247;29;20123;-76
2023/08/16 11:20:23;;;;;;;2.63;1.30;;;26.00;61.80;;;;;;4914860;29;20036;-74
2023/08/16 11:22:49;;;;;;;0.95;0.85;;;26.10;61.90;;;;;;4899127;29;20041;-74
2023/08/16 11:25:15;;;;;;;1.67;1.13;;;26.10;61.90;;;;;;4899587;29;20185;-75
2023/08/16 11:27:41;;;;;;;1.60;1.10;;;26.10;62.00;;;;;;4883153;29;20037;-74
2023/08/16 11:30:08;;;;;;;1.95;0.98;;;26.20;62.10;;;;;;4898612;29;20044;-74
2023/08/16 11:32:38;;;;;;;1.25;1.05;;;26.20;62.10;;;;;;4900371;29;20040;-74
2023/08/16 11:35:08;;;;;;;1.13;1.00;;;26.20;62.10;;;;;;4899878;29;20036;-73
2023/08/16 11:37:34;;;;;;;1.17;0.95;;;26.20;62.10;;;;;;4900053;29;20492;-74
2023/08/16 11:40:01;;;;;;;1.23;1.00;;;26.20;62.20;;;;;;4898252;29;20036;-76
2023/08/16 11:42:28;;;;;;;1.20;1.10;;;26.20;62.10;;;;;;4898219;29;20052;-74
2023/08/16 11:44:54;;;;;;;1.20;1.00;;;26.30;62.20;;;;;;4883679;29;20111;-75
2023/08/16 11:47:20;;;;;;;1.20;1.10;;;26.30;62.10;;;;;;4898398;29;20065;-74
2023/08/16 11:49:49;;;;;;;1.45;0.90;;;26.30;62.10;;;;;;4882802;29;20037;-74
2023/08/16 11:52:25;;;;;;;1.05;0.93;;;26.30;62.20;;;;;;4899110;29;20196;-75
2023/08/16 11:55:06;;;;;;;1.27;1.05;;;26.30;62.10;;;;;;4900143;29;20068;-74
2023/08/16 11:57:33;;;;;;;1.38;1.00;;;26.30;62.20;;;;;;4898350;29;20056;-74
2023/08/16 12:00:01;;;;;;;2.00;1.23;;;26.30;62.10;;;;;;4897815;29;20101;-74
2023/08/16 12:02:31;;;;;;;2.38;1.13;;;26.40;62.10;;;;;;4913128;29;20056;-74
2023/08/16 12:04:57;;;;;;;1.02;0.90;;;26.40;62.10;;;;;;4913507;29;20394;-75
2023/08/16 12:07:24;;;;;;;1.52;1.00;;;26.40;62.20;;;;;;4899763;29;20148;-75
2023/08/16 12:09:49;;;;;;;1.63;1.35;;;26.40;62.20;;;;;;4897894;29;20036;-75
2023/08/16 12:12:15;;;;;;;1.52;1.10;;;26.50;62.20;;;;;;4897631;29;20048;-75
2023/08/16 12:14:41;;;;;;;1.63;1.23;;;26.50;62.20;;;;;;4899389;29;20040;-76
2023/08/16 12:17:07;;;;;;;1.38;1.10;;;26.50;62.20;;;;;;4882175;29;20115;-76
2023/08/16 12:19:32;;;;;;;1.20;1.10;;;26.50;62.10;;;;;;4914317;29;20072;-76
2023/08/16 12:21:58;;;;;;;1.20;1.10;;;26.50;62.00;;;;;;4897508;29;20048;-75
2023/08/16 12:24:24;;;;;;;1.48;1.10;;;26.50;62.10;;;;;;4898769;29;20389;-76
2023/08/16 12:26:50;;;;;;;2.03;1.30;;;26.50;62.00;;;;;;4897845;29;20040;-76
2023/08/16 12:29:17;;;;;;;1.13;1.02;;;26.50;62.00;;;;;;4898216;29;20041;-75
2023/08/16 12:31:42;;;;;;;1.90;1.23;;;26.50;62.00;;;;;;4897571;29;20032;-75
2023/08/16 12:34:08;;;;;;;1.15;1.00;;;26.60;62.20;;;;;;4882071;29;20032;-77
2023/08/16 12:36:34;;;;;;;2.78;1.05;;;26.60;62.10;;;;;;4898407;29;20545;-76
2023/08/16 12:39:00;;;;;;;1.45;1.10;;;26.60;62.40;;;;;;4913034;29;20080;-75
2023/08/16 12:41:26;;;;;;;1.35;1.00;;;26.60;62.20;;;;;;4898304;29;20060;-76
2023/08/16 12:43:52;;;;;;;1.23;1.10;;;26.60;62.10;;;;;;4898772;29;20032;-78
2023/08/16 12:46:17;;;;;;;2.03;1.10;;;26.70;62.20;;;;;;4883176;29;20048;-75